NC32 weather

Rivercliff Airport
Clemmons, North Carolina, United States

Public forecast

Using degrees Fahrenheit for public forecast. Weather courtesy of forecast.io.

METAR (pilot weather report)

Closest report is Smith Reynolds Airport, 12.3 nm (22.7 km) ENE. Retrieved 2019/07/23 14:36 UTC (5 minutes ago):

KINT 231436Z 03003KT 2SM RA BR FEW007 BKN013 OVC019 22/21 A2992 RMK AO2 T02170211 PNO $

TAF (pilot weather forecast)

Closest forecast is Smith Reynolds Airport, 12.3 nm (22.7 km) ENE. Retrieved 2019/07/23 12:22 UTC (2 hours ago):

TAF KINT 231120Z 2312/2412 27005KT P6SM VCTS OVC035CB TEMPO 2312/2314 4SM -TSRA OVC025CB FM231500 02006KT 1 1/2SM -SHRA BR OVC007 FM232100 02009KT P6SM BKN015 FM240200 02006KT 5SM BR OVC045 FM240800 32004KT P6SM SKC